Time;durP1;ratioP1;P1;durP2;ratioP2;P2;SDS_P1;SDS_P2;PMS_P1;PMS_P2;Temp;Humidity;BMP_temperature;BMP_pressure;BME280_temperature;BME280_humidity;BME280_pressure;Samples;Min_cycle;Max_cycle;Signal;HPM_P1;HPM_P2
2024/01/09 00:01:49;;;;;;;26.33;15.77;;;;;;;0.55;100.00;100218.97;5051502;28;20028;-77
2024/01/09 00:04:15;;;;;;;23.35;12.50;;;;;;;0.25;100.00;100214.94;5074218;28;20037;-77
2024/01/09 00:06:40;;;;;;;26.25;13.38;;;;;;;0.15;100.00;100201.88;5069695;28;20431;-78
2024/01/09 00:09:05;;;;;;;25.05;13.85;;;;;;;0.06;100.00;100197.50;5069742;28;20074;-77
2024/01/09 00:11:31;;;;;;;22.88;13.20;;;;;;;0.19;100.00;100222.41;5069113;28;20028;-78
2024/01/09 00:13:56;;;;;;;25.00;12.43;;;;;;;0.33;100.00;100210.59;5071287;28;20052;-78
2024/01/09 00:16:22;;;;;;;23.38;12.00;;;;;;;0.16;100.00;100220.09;5051344;28;20035;-78
2024/01/09 00:18:53;;;;;;;23.40;12.40;;;;;;;0.23;100.00;100230.81;5068993;28;20043;-77
2024/01/09 00:21:22;;;;;;;23.55;13.20;;;;;;;0.27;100.00;100226.09;5069113;28;20052;-77
2024/01/09 00:23:47;;;;;;;27.52;14.30;;;;;;;0.10;100.00;100204.09;5072951;28;20063;-77
2024/01/09 00:26:13;;;;;;;22.60;12.00;;;;;;;-0.15;100.00;100195.97;5051153;28;20147;-78
2024/01/09 00:28:39;;;;;;;18.33;10.18;;;;;;;-0.13;100.00;100208.94;5050962;28;20695;-78
2024/01/09 00:31:04;;;;;;;26.73;14.25;;;;;;;0.02;100.00;100227.63;5051081;28;20016;-77
2024/01/09 00:33:30;;;;;;;26.15;13.63;;;;;;;-0.08;100.00;100218.03;5071294;28;20051;-78
2024/01/09 00:35:55;;;;;;;24.55;13.57;;;;;;;0.16;100.00;100232.38;5069043;28;20448;-77
2024/01/09 00:38:21;;;;;;;25.15;13.63;;;;;;;-0.01;100.00;100237.41;5068986;28;20427;-77
2024/01/09 00:40:46;;;;;;;23.77;11.93;;;;;;;-0.33;100.00;100218.69;5050837;28;20025;-77
2024/01/09 00:43:12;;;;;;;22.05;11.52;;;;;;;-0.27;100.00;100237.25;5071973;28;20118;-76
2024/01/09 00:45:37;;;;;;;26.38;13.85;;;;;;;-0.03;100.00;100257.72;5069032;28;20433;-77
2024/01/09 00:48:03;;;;;;;23.15;12.38;;;;;;;-0.35;100.00;100244.19;5068510;28;20029;-77
2024/01/09 00:50:29;;;;;;;18.52;10.23;;;;;;;-0.57;100.00;100233.13;5050348;28;20157;-78
2024/01/09 00:52:54;;;;;;;24.88;14.13;;;;;;;-0.40;100.00;100234.16;5068812;28;20111;-77
2024/01/09 00:55:19;;;;;;;23.63;12.15;;;;;;;-0.50;100.00;100244.66;5067179;28;21389;-78
2024/01/09 00:57:45;;;;;;;23.85;12.23;;;;;;;-0.37;100.00;100251.38;5088716;28;20023;-77
2024/01/09 01:00:11;;;;;;;26.67;13.73;;;;;;;-0.35;100.00;100257.31;5089227;28;20038;-77
2024/01/09 01:02:36;;;;;;;24.80;13.85;;;;;;;-0.46;100.00;100251.28;5089082;28;20769;-79
2024/01/09 01:05:02;;;;;;;24.88;12.63;;;;;;;-0.31;100.00;100246.38;5074380;28;20024;-77
2024/01/09 01:07:27;;;;;;;21.40;12.90;;;;;;;-0.55;100.00;100230.34;5068503;28;20119;-78
2024/01/09 01:09:52;;;;;;;24.75;13.30;;;;;;;-0.28;100.00;100274.94;5050651;28;20167;-77
2024/01/09 01:12:18;;;;;;;25.70;12.63;;;;;;;-0.42;100.00;100252.63;5068460;28;20024;-78
2024/01/09 01:14:43;;;;;;;25.80;12.52;;;;;;;-0.39;100.00;100248.91;5071207;28;20086;-77
2024/01/09 01:17:09;;;;;;;25.75;12.50;;;;;;;-0.56;100.00;100260.94;5068457;28;20051;-77
2024/01/09 01:19:34;;;;;;;27.23;14.20;;;;;;;-0.55;100.00;100252.13;5050413;28;20416;-77
2024/01/09 01:21:59;;;;;;;21.45;12.10;;;;;;;-0.71;100.00;100246.66;5068471;28;20119;-77
2024/01/09 01:24:25;;;;;;;22.42;11.90;;;;;;;-0.78;100.00;100258.66;5071875;28;20104;-77
2024/01/09 01:26:50;;;;;;;23.77;12.52;;;;;;;-0.79;100.00;100249.16;5068447;28;20036;-77
2024/01/09 01:29:15;;;;;;;21.20;11.73;;;;;;;-0.83;100.00;100256.47;5068330;28;20025;-77
2024/01/09 01:31:41;;;;;;;27.10;14.05;;;;;;;-0.84;100.00;100262.66;5068139;28;20032;-78
2024/01/09 01:34:06;;;;;;;20.55;11.43;;;;;;;-0.96;100.00;100269.84;5071222;28;20041;-79
2024/01/09 01:36:32;;;;;;;22.92;12.40;;;;;;;-0.86;100.00;100299.47;5068339;28;20036;-78
2024/01/09 01:38:57;;;;;;;20.42;11.52;;;;;;;-1.09;100.00;100279.78;5050365;28;20058;-78
2024/01/09 01:41:22;;;;;;;18.52;10.00;;;;;;;-0.96;100.00;100311.75;5068138;28;20021;-78
2024/01/09 01:43:48;;;;;;;21.15;10.48;;;;;;;-1.31;100.00;100293.94;5071172;28;20017;-77
2024/01/09 01:46:13;;;;;;;21.40;11.63;;;;;;;-1.22;100.00;100316.69;5050951;28;20120;-77
2024/01/09 01:48:39;;;;;;;19.90;11.40;;;;;;;-1.22;100.00;100304.41;5068131;28;20025;-77
2024/01/09 01:51:06;;;;;;;33.15;18.52;;;;;;;-1.38;100.00;100298.91;5068180;28;20029;-79
2024/01/09 01:53:33;;;;;;;29.35;17.10;;;;;;;-1.23;100.00;100289.69;5068071;28;20587;-78
2024/01/09 01:55:59;;;;;;;44.00;22.98;;;;;;;-1.29;100.00;100285.00;5088512;28;20115;-77
2024/01/09 01:58:27;;;;;;;46.55;25.73;;;;;;;-1.18;100.00;100294.50;5092076;28;20024;-79
2024/01/09 02:00:53;;;;;;;85.10;46.78;;;;;;;-1.10;100.00;100288.59;5092005;28;20047;-77
2024/01/09 02:03:19;;;;;;;45.60;25.35;;;;;;;-0.99;100.00;100306.78;5091911;28;20503;-77
2024/01/09 02:05:46;;;;;;;27.73;14.95;;;;;;;-1.26;100.00;100282.09;5091081;28;20165;-77
2024/01/09 02:08:12;;;;;;;20.58;10.25;;;;;;;-1.36;100.00;100309.22;5073630;28;20509;-77
2024/01/09 02:10:38;;;;;;;27.55;14.73;;;;;;;-1.37;100.00;100320.66;5091992;28;20028;-77
2024/01/09 02:13:03;;;;;;;24.77;12.57;;;;;;;-1.31;100.00;100288.72;5091590;28;20401;-78
2024/01/09 02:15:29;;;;;;;24.45;12.50;;;;;;;-1.28;100.00;100260.47;5091305;28;20028;-77
2024/01/09 02:17:54;;;;;;;25.48;13.02;;;;;;;-1.29;100.00;100279.78;5091786;28;20024;-77
2024/01/09 02:20:22;;;;;;;26.75;12.98;;;;;;;-1.33;100.00;100275.75;5091762;28;20020;-78
2024/01/09 02:22:48;;;;;;;22.50;12.05;;;;;;;-1.16;100.00;100294.38;5091840;28;20024;-78
2024/01/09 02:25:13;;;;;;;25.63;13.38;;;;;;;-1.19;100.00;100268.47;5083398;28;20032;-78
2024/01/09 02:28:05;;;;;;;22.02;11.70;;;;;;;-1.20;100.00;100299.06;5071200;28;20032;-78
2024/01/09 02:30:30;;;;;;;24.67;12.93;;;;;;;-1.29;100.00;100269.31;5071005;28;20512;-78
2024/01/09 02:32:57;;;;;;;24.42;12.73;;;;;;;-1.60;100.00;100257.28;5071264;28;20039;-79
2024/01/09 02:35:22;;;;;;;25.75;14.50;;;;;;;-1.08;100.00;100302.38;5083051;28;20036;-78
2024/01/09 02:37:47;;;;;;;24.70;13.20;;;;;;;-1.42;100.00;100302.75;5091023;28;20122;-76
2024/01/09 02:40:13;;;;;;;24.80;12.93;;;;;;;-1.26;100.00;100313.50;5091264;28;20020;-76
2024/01/09 02:42:38;;;;;;;26.42;14.50;;;;;;;-1.20;100.00;100319.16;5091673;28;20035;-77
2024/01/09 02:45:04;;;;;;;26.77;13.98;;;;;;;-1.32;100.00;100313.22;5082561;28;20020;-77
2024/01/09 02:47:29;;;;;;;22.23;11.18;;;;;;;-1.50;100.00;100297.38;5070870;28;20107;-76
2024/01/09 02:49:55;;;;;;;24.20;12.70;;;;;;;-1.17;100.00;100313.66;5070878;28;20024;-77
2024/01/09 02:52:20;;;;;;;19.65;10.18;;;;;;;-1.50;100.00;100302.59;5070753;28;20035;-78
2024/01/09 02:54:45;;;;;;;22.27;11.70;;;;;;;-1.63;100.00;100314.13;5074686;28;20024;-77
2024/01/09 02:57:12;;;;;;;23.17;11.43;;;;;;;-1.85;100.00;100282.97;5071015;28;20024;-76
2024/01/09 02:59:38;;;;;;;23.27;12.80;;;;;;;-1.44;100.00;100326.41;5070758;28;20032;-78
2024/01/09 03:02:06;;;;;;;21.50;11.82;;;;;;;-1.72;100.00;100345.47;5070876;28;20029;-77
2024/01/09 03:04:32;;;;;;;23.23;11.93;;;;;;;-1.67;100.00;100344.13;5072421;28;20052;-77
2024/01/09 03:06:57;;;;;;;22.67;11.75;;;;;;;-1.73;100.00;100349.88;5090439;28;20072;-78
2024/01/09 03:09:24;;;;;;;33.72;14.95;;;;;;;-1.67;100.00;100367.66;5091095;28;20020;-78
2024/01/09 03:11:49;;;;;;;23.50;12.57;;;;;;;-1.66;100.00;100356.22;5090711;28;20052;-78
2024/01/09 03:14:15;;;;;;;26.90;14.23;;;;;;;-1.57;100.00;100390.38;5090362;28;20040;-77
2024/01/09 03:16:40;;;;;;;27.55;14.10;;;;;;;-1.50;100.00;100391.53;5074032;28;20516;-79
2024/01/09 03:19:06;;;;;;;23.10;11.45;;;;;;;-1.73;100.00;100381.25;5070559;28;20035;-77
2024/01/09 03:21:31;;;;;;;25.02;12.95;;;;;;;-1.82;100.00;100350.66;5070241;28;20052;-77
2024/01/09 03:23:57;;;;;;;26.02;14.15;;;;;;;-1.70;100.00;100365.28;5052400;28;20123;-78
2024/01/09 03:26:22;;;;;;;22.00;12.25;;;;;;;-1.90;100.00;100389.69;5055959;28;20066;-78
2024/01/09 03:28:48;;;;;;;24.42;11.65;;;;;;;-2.20;100.00;100380.88;5052354;28;20120;-78
2024/01/09 03:31:23;;;;;;;21.90;8.93;;;;;;;-2.14;100.00;100419.56;5052405;28;20020;-78
2024/01/09 03:33:49;;;;;;;22.02;12.38;;;;;;;-1.97;100.00;100456.53;5069710;28;20027;-79
2024/01/09 03:36:15;;;;;;;27.98;14.20;;;;;;;-2.00;100.00;100436.72;5074058;28;20060;-78
2024/01/09 03:38:41;;;;;;;28.90;14.85;;;;;;;-1.93;100.00;100455.31;5069860;28;20599;-78
2024/01/09 03:41:07;;;;;;;27.10;13.70;;;;;;;-2.29;100.00;100413.00;5070059;28;20067;-78
2024/01/09 03:43:32;;;;;;;24.67;11.85;;;;;;;-2.11;100.00;100434.16;5052028;28;20443;-77
2024/01/09 03:45:58;;;;;;;26.20;14.15;;;;;;;-2.23;100.00;100410.72;5080292;28;20047;-79
2024/01/09 03:48:23;;;;;;;30.77;16.27;;;;;;;-2.20;100.00;100446.22;5072390;28;20035;-77
2024/01/09 03:50:49;;;;;;;21.83;11.65;;;;;;;-2.56;100.00;100411.69;5089883;28;20126;-78
2024/01/09 03:53:14;;;;;;;24.30;12.13;;;;;;;-2.19;100.00;100453.06;5071845;28;20016;-77
2024/01/09 03:55:39;;;;;;;25.67;11.88;;;;;;;-2.38;100.00;100448.53;5071298;28;20039;-78
2024/01/09 03:58:05;;;;;;;30.98;15.45;;;;;;;-2.27;100.00;100445.03;5090491;28;20114;-78
2024/01/09 04:00:30;;;;;;;29.63;13.48;;;;;;;-2.26;100.00;100447.53;5090363;28;20107;-77
2024/01/09 04:02:56;;;;;;;31.33;16.98;;;;;;;-2.29;100.00;100436.50;5090044;28;20085;-77
2024/01/09 04:05:21;;;;;;;24.08;13.25;;;;;;;-2.51;100.00;100412.16;5085687;28;20028;-78
2024/01/09 04:07:46;;;;;;;35.67;18.42;;;;;;;-2.29;100.00;100446.94;5090683;28;20052;-79
2024/01/09 04:10:12;;;;;;;34.10;17.73;;;;;;;-2.45;100.00;100440.38;5091570;28;20055;-77
2024/01/09 04:12:37;;;;;;;23.63;11.23;;;;;;;-2.79;100.00;100384.03;5100337;28;20036;-79
2024/01/09 04:15:03;;;;;;;28.05;13.65;;;;;;;-2.32;100.00;100447.22;5103061;28;20045;-79
2024/01/09 04:17:28;;;;;;;26.85;13.85;;;;;;;-2.18;100.00;100470.44;5101770;28;20047;-77
2024/01/09 04:19:54;;;;;;;22.13;9.98;;;;;;;-2.57;100.00;100438.78;5101961;28;20035;-78
2024/01/09 04:22:19;;;;;;;24.65;12.02;;;;;;;-2.34;100.00;100475.25;5099797;28;20421;-79
2024/01/09 04:24:45;;;;;;;28.30;15.68;;;;;;;-2.51;100.00;100425.22;5098072;28;20021;-79
2024/01/09 04:27:10;;;;;;;36.53;16.83;;;;;;;-2.27;100.00;100486.84;5084432;28;20036;-79
2024/01/09 04:29:36;;;;;;;85.85;39.08;;;;;;;-2.22;100.00;100469.84;5077337;28;20432;-78
2024/01/09 04:32:02;;;;;;;40.88;17.52;;;;;;;-2.59;100.00;100443.31;5075489;28;20074;-79
2024/01/09 04:34:28;;;;;;;49.15;25.00;;;;;;;-2.33;100.00;100456.84;5054455;28;20024;-78
2024/01/09 04:36:53;;;;;;;61.00;30.38;;;;;;;-2.20;100.00;100476.75;5074814;28;20621;-79
2024/01/09 04:39:19;;;;;;;46.08;21.48;;;;;;;-2.23;100.00;100465.59;5052331;28;20032;-78
2024/01/09 04:41:44;;;;;;;26.33;12.95;;;;;;;-2.46;100.00;100462.22;5069078;28;20611;-78
2024/01/09 04:44:10;;;;;;;34.60;18.75;;;;;;;-2.12;100.00;100497.84;5069291;28;20462;-78
2024/01/09 04:46:35;;;;;;;37.20;20.77;;;;;;;-2.16;100.00;100476.34;5072825;28;20565;-79
2024/01/09 04:49:03;;;;;;;32.70;17.55;;;;;;;-2.46;100.00;100470.06;5069278;28;20611;-78
2024/01/09 04:51:29;;;;;;;32.47;18.55;;;;;;;-2.13;100.00;100520.50;5051057;28;20531;-78
2024/01/09 04:53:54;;;;;;;38.20;20.63;;;;;;;-2.12;100.00;100544.88;5069278;28;20024;-78
2024/01/09 04:56:20;;;;;;;28.67;13.82;;;;;;;-2.06;100.00;100521.69;5077336;28;20115;-80
2024/01/09 04:58:45;;;;;;;33.88;17.35;;;;;;;-2.15;100.00;100488.44;5089419;28;20031;-78
2024/01/09 05:01:11;;;;;;;52.75;29.27;;;;;;;-1.89;100.00;100532.53;5088471;28;20036;-79
2024/01/09 05:03:37;;;;;;;34.15;17.50;;;;;;;-2.13;100.00;100520.50;5089065;28;20430;-79
2024/01/09 05:06:02;;;;;;;29.35;16.08;;;;;;;-1.84;100.00;100539.03;5084559;28;20062;-80
2024/01/09 05:08:28;;;;;;;36.28;22.30;;;;;;;-2.24;100.00;100539.69;5088315;28;20073;-78
2024/01/09 05:10:53;;;;;;;61.97;32.47;;;;;;;-2.14;100.00;100526.69;5088700;28;20516;-79
2024/01/09 05:13:19;;;;;;;140.48;50.50;;;;;;;-2.31;100.00;100514.16;5088285;28;20048;-78
2024/01/09 05:15:44;;;;;;;143.60;53.45;;;;;;;-2.22;100.00;100534.34;5086939;28;20111;-78
2024/01/09 05:18:09;;;;;;;77.13;34.83;;;;;;;-2.48;100.00;100510.31;5071602;28;20029;-79
2024/01/09 05:20:35;;;;;;;72.10;30.52;;;;;;;-2.29;100.00;100548.84;5068418;28;20412;-78
2024/01/09 05:23:00;;;;;;;42.67;20.88;;;;;;;-2.37;100.00;100519.88;5068286;28;20025;-79
2024/01/09 05:25:25;;;;;;;35.95;18.75;;;;;;;-2.16;100.00;100562.59;5068313;28;20024;-79
2024/01/09 05:27:51;;;;;;;29.92;16.05;;;;;;;-2.40;100.00;100534.03;5068709;28;20127;-79
2024/01/09 05:30:16;;;;;;;26.38;13.40;;;;;;;-2.39;100.00;100550.53;5074563;28;20174;-79
2024/01/09 05:32:42;;;;;;;27.88;15.43;;;;;;;-2.39;100.00;100551.38;5092637;28;20481;-79
2024/01/09 05:35:09;;;;;;;39.65;22.60;;;;;;;-2.09;100.00;100563.72;5092320;28;20027;-79
2024/01/09 05:37:34;;;;;;;29.35;15.73;;;;;;;-1.99;100.00;100557.78;5080673;28;20037;-78
2024/01/09 05:40:00;;;;;;;26.13;13.68;;;;;;;-2.39;100.00;100503.50;5072516;28;20035;-77
2024/01/09 05:42:25;;;;;;;23.85;11.82;;;;;;;-2.10;100.00;100543.78;5054633;28;20028;-79
2024/01/09 05:44:51;;;;;;;21.42;11.30;;;;;;;-2.30;100.00;100534.13;5072006;28;20040;-79
2024/01/09 05:47:16;;;;;;;21.83;11.93;;;;;;;-2.13;100.00;100546.63;5057870;28;20492;-79
2024/01/09 05:49:42;;;;;;;24.27;12.50;;;;;;;-2.26;100.00;100540.75;5075072;28;20036;-80
2024/01/09 05:52:07;;;;;;;26.10;13.05;;;;;;;-2.29;100.00;100567.97;5083192;28;20035;-78
2024/01/09 05:54:32;;;;;;;23.13;11.35;;;;;;;-2.40;100.00;100533.22;5077567;28;20025;-80
2024/01/09 05:56:58;;;;;;;19.33;10.38;;;;;;;-2.12;100.00;100571.84;5081631;28;20056;-79
2024/01/09 05:59:23;;;;;;;24.10;12.52;;;;;;;-2.30;100.00;100570.69;5054375;28;20401;-79
2024/01/09 06:01:49;;;;;;;21.75;10.60;;;;;;;-2.20;100.00;100576.84;5054226;28;20119;-79
2024/01/09 06:04:14;;;;;;;20.77;11.93;;;;;;;-2.26;100.00;100588.63;5071859;28;20024;-79
2024/01/09 06:06:39;;;;;;;20.95;10.05;;;;;;;-2.06;100.00;100589.63;5075773;28;20028;-79
2024/01/09 06:09:05;;;;;;;24.77;12.48;;;;;;;-2.22;100.00;100590.03;5054834;28;20107;-79
2024/01/09 06:11:31;;;;;;;21.42;10.20;;;;;;;-2.49;100.00;100595.69;5071951;28;20028;-78
2024/01/09 06:13:56;;;;;;;28.42;13.07;;;;;;;-2.37;100.00;100595.66;5071361;28;20463;-80
2024/01/09 06:16:22;;;;;;;41.30;22.15;;;;;;;-2.16;100.00;100609.63;5072417;28;20111;-81
2024/01/09 06:18:48;;;;;;;25.60;12.65;;;;;;;-2.02;100.00;100603.28;5070547;28;20462;-79
2024/01/09 06:21:14;;;;;;;25.25;14.60;;;;;;;-1.91;100.00;100642.44;5073689;28;20024;-79
2024/01/09 06:23:39;;;;;;;23.50;11.60;;;;;;;-2.19;100.00;100630.75;5091894;28;20051;-79
2024/01/09 06:26:05;;;;;;;30.10;17.80;;;;;;;-2.23;100.00;100630.19;5073559;28;20111;-79
2024/01/09 06:28:31;;;;;;;25.05;11.55;;;;;;;-2.00;100.00;100650.19;5089441;28;20047;-79
2024/01/09 06:30:57;;;;;;;37.20;23.48;;;;;;;-2.36;100.00;100598.13;5079392;28;20029;-80
2024/01/09 06:33:22;;;;;;;38.30;21.00;;;;;;;-2.00;100.00;100624.03;5063710;28;20120;-79
2024/01/09 06:35:48;;;;;;;20.73;10.73;;;;;;;-2.39;100.00;100602.78;5083850;28;20028;-79
2024/01/09 06:38:14;;;;;;;60.03;37.25;;;;;;;-2.08;100.00;100628.13;5083511;28;20028;-80
2024/01/09 06:40:39;;;;;;;57.30;41.03;;;;;;;-2.09;100.00;100631.66;5081697;28;20016;-80
2024/01/09 06:43:05;;;;;;;28.50;16.33;;;;;;;-2.07;100.00;100634.16;5081060;28;20100;-79
2024/01/09 06:45:32;;;;;;;23.23;13.25;;;;;;;-2.14;100.00;100641.69;5066693;28;20553;-79
2024/01/09 06:48:00;;;;;;;21.00;12.35;;;;;;;-2.06;100.00;100626.22;5063923;28;20024;-78
2024/01/09 06:50:25;;;;;;;23.30;12.05;;;;;;;-2.16;100.00;100656.66;5062910;28;20024;-80
2024/01/09 06:52:50;;;;;;;20.65;10.73;;;;;;;-2.40;100.00;100648.13;5080573;28;20393;-80
2024/01/09 06:55:16;;;;;;;19.75;11.48;;;;;;;-2.51;100.00;100634.16;5079706;28;20513;-79
2024/01/09 06:57:42;;;;;;;20.60;11.45;;;;;;;-2.40;100.00;100653.38;5080801;28;20024;-78
2024/01/09 07:00:07;;;;;;;21.70;12.77;;;;;;;-2.43;100.00;100650.03;5078863;28;20020;-79
2024/01/09 07:02:34;;;;;;;21.10;11.32;;;;;;;-2.02;100.00;100694.75;5068216;28;20062;-79
2024/01/09 07:05:00;;;;;;;26.77;15.73;;;;;;;-2.02;100.00;100684.31;5091415;28;20110;-77
2024/01/09 07:07:25;;;;;;;40.25;31.42;;;;;;;-2.13;100.00;100687.75;5090422;28;20120;-79
2024/01/09 07:09:51;;;;;;;87.68;61.00;;;;;;;-1.93;100.00;100698.41;5090897;28;20444;-78
2024/01/09 07:12:16;;;;;;;93.72;64.15;;;;;;;-1.94;100.00;100683.66;5090918;28;20107;-79
2024/01/09 07:14:43;;;;;;;38.15;24.73;;;;;;;-2.15;100.00;100726.25;5090865;28;20124;-78
2024/01/09 07:17:09;;;;;;;34.70;19.65;;;;;;;-2.06;100.00;100722.91;5088988;28;20021;-78
2024/01/09 07:19:34;;;;;;;21.02;11.45;;;;;;;-2.31;100.00;100702.25;5070203;28;20559;-80
2024/01/09 07:22:00;;;;;;;23.15;11.93;;;;;;;-2.27;100.00;100693.22;5052498;28;20123;-78
2024/01/09 07:24:25;;;;;;;22.55;11.68;;;;;;;-2.06;100.00;100729.94;5070406;28;20025;-78
2024/01/09 07:26:51;;;;;;;22.38;10.32;;;;;;;-2.15;100.00;100746.31;5052514;28;20055;-78
2024/01/09 07:29:18;;;;;;;17.45;8.93;;;;;;;-2.36;100.00;100712.25;5051931;28;20496;-78
2024/01/09 07:31:43;;;;;;;17.75;9.25;;;;;;;-2.35;100.00;100713.91;5069899;28;20432;-78
2024/01/09 07:34:09;;;;;;;23.65;10.45;;;;;;;-2.10;100.00;100746.81;5070281;28;20036;-78
2024/01/09 07:36:34;;;;;;;22.45;10.98;;;;;;;-2.19;100.00;100735.28;5070447;28;20038;-79
2024/01/09 07:39:00;;;;;;;23.33;10.95;;;;;;;-1.97;100.00;100733.59;5085289;28;20047;-80
2024/01/09 07:41:25;;;;;;;18.90;9.00;;;;;;;-2.17;100.00;100719.47;5072242;28;20475;-79
2024/01/09 07:43:51;;;;;;;16.40;8.55;;;;;;;-2.27;100.00;100753.31;5090280;28;20038;-80
2024/01/09 07:46:17;;;;;;;17.52;9.43;;;;;;;-2.53;100.00;100729.25;5071750;28;20020;-79
2024/01/09 07:48:43;;;;;;;21.38;10.45;;;;;;;-2.44;100.00;100726.72;5089745;28;20028;-80
2024/01/09 07:51:09;;;;;;;23.25;10.82;;;;;;;-2.25;100.00;100720.06;5071490;28;20028;-80
2024/01/09 07:53:34;;;;;;;20.45;10.30;;;;;;;-2.23;100.00;100728.63;5089839;28;20027;-79
2024/01/09 07:56:00;;;;;;;20.00;10.35;;;;;;;-2.22;100.00;100740.75;5090028;28;20028;-80
2024/01/09 07:58:25;;;;;;;18.50;9.15;;;;;;;-2.26;100.00;100771.50;5080798;28;20154;-79
2024/01/09 08:00:51;;;;;;;21.17;9.50;;;;;;;-2.36;100.00;100738.38;5069991;28;20040;-80
2024/01/09 08:03:16;;;;;;;18.25;8.98;;;;;;;-2.19;100.00;100776.25;5069540;28;20462;-80
2024/01/09 08:05:42;;;;;;;19.00;9.93;;;;;;;-2.04;100.00;100748.94;5051902;28;20025;-79
2024/01/09 08:08:07;;;;;;;17.95;9.63;;;;;;;-2.12;100.00;100767.81;5074898;28;20020;-80
2024/01/09 08:10:33;;;;;;;17.60;8.55;;;;;;;-2.01;100.00;100759.13;5089484;28;20028;-79
2024/01/09 08:12:58;;;;;;;20.23;11.35;;;;;;;-1.97;100.00;100749.28;5089398;28;20134;-80
2024/01/09 08:15:24;;;;;;;16.45;8.55;;;;;;;-1.90;100.00;100750.44;5089899;28;20047;-80
2024/01/09 08:17:50;;;;;;;19.90;9.65;;;;;;;-2.16;100.00;100731.59;5089820;28;20028;-80
2024/01/09 08:20:15;;;;;;;18.35;9.27;;;;;;;-2.16;100.00;100766.41;5088912;28;20077;-80
2024/01/09 08:22:41;;;;;;;16.60;9.00;;;;;;;-2.25;100.00;100756.66;5071320;28;20412;-80
2024/01/09 08:25:06;;;;;;;19.05;10.43;;;;;;;-1.98;100.00;100771.13;5089574;28;20049;-78
2024/01/09 08:27:32;;;;;;;21.52;10.82;;;;;;;-1.84;100.00;100792.66;5089038;28;20020;-79
2024/01/09 08:29:57;;;;;;;21.33;9.57;;;;;;;-2.42;100.00;100763.19;5073135;28;20037;-78
2024/01/09 08:32:23;;;;;;;20.50;12.70;;;;;;;-2.26;100.00;100757.63;5069088;28;20021;-79
2024/01/09 08:34:49;;;;;;;18.75;9.88;;;;;;;-2.33;100.00;100749.44;5069074;28;20039;-79
2024/01/09 08:37:14;;;;;;;17.80;10.07;;;;;;;-2.37;100.00;100731.47;5050488;28;20035;-79
2024/01/09 08:39:39;;;;;;;21.65;9.85;;;;;;;-2.08;100.00;100763.19;5054769;28;20032;-78
2024/01/09 08:42:05;;;;;;;30.10;13.10;;;;;;;-1.98;100.00;100784.19;5067627;28;20030;-79
2024/01/09 08:44:31;;;;;;;24.08;11.70;;;;;;;-1.85;100.00;100793.56;5049837;28;20396;-79
2024/01/09 08:46:56;;;;;;;26.00;12.40;;;;;;;-2.17;100.00;100754.28;5067920;28;20502;-79
2024/01/09 08:49:22;;;;;;;38.88;15.27;;;;;;;-2.24;100.00;100821.03;5071502;28;20058;-80
2024/01/09 08:51:47;;;;;;;31.58;14.65;;;;;;;-2.48;100.00;100780.16;5049673;28;20029;-80
2024/01/09 08:54:14;;;;;;;29.58;13.82;;;;;;;-2.26;100.00;100828.16;5068482;28;20033;-79
2024/01/09 08:56:39;;;;;;;30.95;14.02;;;;;;;-2.09;100.00;100798.94;5068885;28;20062;-79
2024/01/09 08:59:07;;;;;;;40.95;19.15;;;;;;;-2.29;100.00;100799.63;5077383;28;20024;-79
2024/01/09 09:01:35;;;;;;;32.35;15.55;;;;;;;-2.40;100.00;100804.88;5088907;28;20484;-79
2024/01/09 09:04:02;;;;;;;26.73;11.98;;;;;;;-2.09;100.00;100809.38;5088515;28;20040;-79
2024/01/09 09:06:27;;;;;;;19.70;9.45;;;;;;;-2.34;100.00;100763.44;5089077;28;20036;-79
2024/01/09 09:08:52;;;;;;;21.05;10.02;;;;;;;-2.34;100.00;100783.50;5088251;28;22280;-79
2024/01/09 09:11:18;;;;;;;22.08;10.23;;;;;;;-2.37;100.00;100779.34;5088359;28;20043;-79
2024/01/09 09:13:44;;;;;;;19.15;9.98;;;;;;;-2.00;100.00;100813.09;5088459;28;20124;-79
2024/01/09 09:16:10;;;;;;;19.40;8.85;;;;;;;-2.08;100.00;100815.47;5088425;28;20048;-79
2024/01/09 09:18:36;;;;;;;20.50;10.73;;;;;;;-2.09;100.00;100778.03;5069075;28;20560;-78
2024/01/09 09:21:05;;;;;;;20.65;11.20;;;;;;;-1.97;100.00;100817.25;5068852;28;20060;-80
2024/01/09 09:23:31;;;;;;;21.60;10.20;;;;;;;-2.23;100.00;100786.09;5068159;28;20020;-79
2024/01/09 09:25:56;;;;;;;20.85;9.68;;;;;;;-1.85;100.00;100814.50;5077134;28;20070;-79
2024/01/09 09:28:22;;;;;;;25.05;13.15;;;;;;;-1.83;100.00;100809.97;5058648;28;20089;-79
2024/01/09 09:30:48;;;;;;;21.98;12.85;;;;;;;-1.70;100.00;100820.28;5058191;28;20036;-79
2024/01/09 09:33:13;;;;;;;22.20;12.15;;;;;;;-1.89;100.00;100788.72;5077582;28;20024;-78
2024/01/09 09:35:38;;;;;;;19.65;10.73;;;;;;;-1.93;100.00;100809.03;5050301;28;20036;-79
2024/01/09 09:38:04;;;;;;;21.52;12.00;;;;;;;-1.97;100.00;100793.72;5050326;28;20044;-79
2024/01/09 09:40:30;;;;;;;19.08;9.60;;;;;;;-2.09;100.00;100830.28;5085564;28;20113;-79
2024/01/09 09:42:58;;;;;;;23.67;11.07;;;;;;;-1.83;100.00;100819.63;5088347;28;20020;-79
2024/01/09 09:45:25;;;;;;;25.00;12.88;;;;;;;-1.82;100.00;100818.66;5088449;28;20047;-78
2024/01/09 09:47:53;;;;;;;21.55;10.70;;;;;;;-1.90;100.00;100818.41;5082204;28;20036;-79
2024/01/09 09:50:19;;;;;;;28.35;15.43;;;;;;;-1.89;100.00;100814.88;5060881;28;20043;-78
2024/01/09 09:52:44;;;;;;;20.90;11.05;;;;;;;-2.35;100.00;100818.41;5077460;28;20029;-79
2024/01/09 09:55:10;;;;;;;21.98;11.85;;;;;;;-2.17;100.00;100817.00;5076813;28;20036;-80
2024/01/09 09:57:36;;;;;;;21.55;10.52;;;;;;;-2.16;100.00;100813.44;5079417;28;20021;-81
2024/01/09 10:00:04;;;;;;;22.58;13.05;;;;;;;-2.11;100.00;100832.19;5079813;28;20032;-79
2024/01/09 10:02:33;;;;;;;20.60;11.35;;;;;;;-1.93;100.00;100814.25;5074639;28;20028;-79
2024/01/09 10:05:06;;;;;;;22.35;14.10;;;;;;;-1.90;100.00;100823.66;5076542;28;20105;-79
2024/01/09 10:07:37;;;;;;;16.75;8.90;;;;;;;-1.90;100.00;100842.78;5061216;28;20032;-80
2024/01/09 10:10:06;;;;;;;23.27;12.15;;;;;;;-2.01;100.00;100832.31;5078548;28;20132;-79
2024/01/09 10:12:33;;;;;;;17.63;9.00;;;;;;;-2.47;100.00;100815.78;5060138;28;20116;-79
2024/01/09 10:15:09;;;;;;;20.13;11.40;;;;;;;-2.14;100.00;100853.34;5088618;28;20044;-79
2024/01/09 10:17:39;;;;;;;22.65;12.40;;;;;;;-2.07;100.00;100849.31;5087293;28;20044;-79
2024/01/09 10:20:08;;;;;;;22.92;11.73;;;;;;;-2.29;100.00;100841.44;5085486;28;20035;-79
2024/01/09 10:22:35;;;;;;;24.27;12.90;;;;;;;-2.20;100.00;100834.72;5080555;28;20024;-80
2024/01/09 10:25:12;;;;;;;25.50;15.18;;;;;;;-2.30;100.00;100839.78;5083346;28;20048;-78
2024/01/09 10:27:39;;;;;;;19.80;10.93;;;;;;;-2.12;100.00;100840.19;5082656;28;20028;-79
2024/01/09 10:30:09;;;;;;;25.25;13.50;;;;;;;-2.45;100.00;100811.28;5062603;28;20039;-79
2024/01/09 10:32:36;;;;;;;24.88;14.60;;;;;;;-2.37;100.00;100841.19;5084674;28;20035;-79
2024/01/09 10:35:07;;;;;;;22.30;10.82;;;;;;;-2.44;100.00;100819.94;5089455;28;20028;-79
2024/01/09 10:37:36;;;;;;;22.85;13.10;;;;;;;-2.22;100.00;100845.25;5091388;28;20028;-79
2024/01/09 10:40:04;;;;;;;26.73;15.10;;;;;;;-2.22;100.00;100840.03;5086327;28;20036;-78
2024/01/09 10:42:30;;;;;;;18.77;10.48;;;;;;;-2.16;100.00;100836.13;5071364;28;20090;-78
2024/01/09 10:44:59;;;;;;;20.42;11.57;;;;;;;-2.39;100.00;100822.19;5053074;28;20076;-79
2024/01/09 10:47:27;;;;;;;21.50;11.90;;;;;;;-2.39;100.00;100837.88;5071430;28;20025;-79
2024/01/09 10:49:53;;;;;;;20.83;11.95;;;;;;;-2.30;100.00;100811.06;5076932;28;20036;-79
2024/01/09 10:52:20;;;;;;;19.40;9.35;;;;;;;-2.43;100.00;100845.94;5091314;28;20148;-78
2024/01/09 10:54:46;;;;;;;18.88;9.88;;;;;;;-2.52;100.00;100830.94;5091319;28;20028;-80
2024/01/09 10:57:13;;;;;;;16.02;8.68;;;;;;;-2.10;100.00;100859.19;5080955;28;20043;-79